Time;durP1;ratioP1;P1;durP2;ratioP2;P2;SDS_P1;SDS_P2;PMS_P1;PMS_P2;Temp;Humidity;BMP_temperature;BMP_pressure;BME280_temperature;BME280_humidity;BME280_pressure;Samples;Min_cycle;Max_cycle;Signal;HPM_P1;HPM_P2
2021/11/07 00:00:22;;;;;;;12.55;8.13;;;;;;;3.47;75.40;100388.05;1751422;82;21038;-63
2021/11/07 00:05:31;;;;;;;12.00;7.47;;;;;;;3.53;75.45;100386.39;1730933;82;21007;-63
2021/11/07 00:09:09;;;;;;;10.43;7.08;;;;;;;3.57;75.56;100382.77;1752936;82;21018;-63
2021/11/07 00:10:43;;;;;;;13.10;7.42;;;;;;;3.57;75.78;100380.91;1720076;82;21007;-63
2021/11/07 00:13:19;;;;;;;12.40;6.92;;;;;;;3.62;75.96;100373.00;1750006;82;20980;-64
2021/11/07 00:15:42;;;;;;;11.12;6.90;;;;;;;3.71;75.85;100366.37;1751708;82;21212;-64
2021/11/07 00:18:15;;;;;;;11.38;7.42;;;;;;;3.79;75.78;100368.00;1738805;82;21078;-64
2021/11/07 00:20:46;;;;;;;12.28;7.05;;;;;;;3.81;75.86;100360.52;1735386;82;21031;-63
2021/11/07 00:23:18;;;;;;;11.80;7.05;;;;;;;3.83;75.94;100371.90;1721988;83;21054;-63
2021/11/07 00:31:15;;;;;;;13.15;7.47;;;;;;;4.02;75.62;100357.53;1735934;82;21003;-63
2021/11/07 00:34:11;;;;;;;15.10;7.03;;;;;;;4.04;75.75;100359.48;1738158;82;21008;-64
2021/11/07 00:38:50;;;;;;;11.78;7.10;;;;;;;4.19;75.58;100343.88;1733954;82;21455;-63
2021/11/07 00:41:22;;;;;;;10.38;7.08;;;;;;;4.22;75.47;100346.13;1749870;82;21078;-63
2021/11/07 00:43:52;;;;;;;11.20;6.70;;;;;;;4.24;75.46;100348.11;1745917;82;20975;-63
2021/11/07 00:46:22;;;;;;;11.93;7.05;;;;;;;4.27;75.35;100343.62;1723264;82;21094;-63
2021/11/07 00:48:47;;;;;;;10.85;6.87;;;;;;;4.33;75.15;100340.06;1746916;82;21034;-63
2021/11/07 00:59:16;;;;;;;11.10;6.58;;;;;;;4.37;74.89;100332.37;1732094;82;21070;-63
2021/11/07 01:01:40;;;;;;;11.00;6.90;;;;;;;4.38;74.76;100325.94;1737940;82;20988;-63
2021/11/07 01:04:11;;;;;;;10.53;7.15;;;;;;;4.34;74.73;100322.02;1738434;82;21031;-63
2021/11/07 01:06:37;;;;;;;10.45;6.25;;;;;;;4.27;74.80;100311.80;1752972;82;21043;-63
2021/11/07 01:09:03;;;;;;;12.20;6.62;;;;;;;4.25;74.78;100323.34;1752591;82;21011;-63
2021/11/07 01:11:30;;;;;;;;;;;;;;;4.26;74.64;100320.41;1753660;82;21122;-63
2021/11/07 01:13:56;;;;;;;10.80;7.03;;;;;;;4.24;74.62;100324.38;1731533;82;20152;-63
2021/11/07 01:16:23;;;;;;;13.15;6.83;;;;;;;4.10;74.88;100314.71;1739431;82;21067;-63
2021/11/07 01:18:49;;;;;;;11.78;7.50;;;;;;;4.05;74.94;100315.34;1741440;82;20995;-63
2021/11/07 01:21:18;;;;;;;9.98;6.78;;;;;;;4.05;74.94;100308.61;1732184;82;21027;-63
2021/11/07 01:23:57;;;;;;;10.35;6.80;;;;;;;4.02;75.00;100314.44;1740713;82;21446;-63
2021/11/07 01:26:29;;;;;;;13.85;7.62;;;;;;;3.94;75.22;100304.73;1747612;82;21039;-63
2021/11/07 01:28:55;;;;;;;10.72;7.37;;;;;;;3.94;75.27;100306.59;1724801;82;21039;-63
2021/11/07 01:31:19;;;;;;;10.63;6.78;;;;;;;3.94;75.21;100306.08;1661015;85;21083;-63
2021/11/07 01:33:45;;;;;;;;;;;;;;;3.90;75.23;100298.63;1725556;83;21476;-63
2021/11/07 01:36:30;;;;;;;13.10;7.78;;;;;;;3.81;75.34;100294.55;1713127;82;20416;-63
2021/11/07 01:39:02;;;;;;;13.05;7.15;;;;;;;3.74;75.54;100295.92;1718382;82;21468;-63
2021/11/07 01:44:05;;;;;;;10.60;7.03;;;;;;;3.66;75.51;100291.28;1733571;82;20936;-63
2021/11/07 01:46:33;;;;;;;;;;;;;;;3.57;75.79;100295.27;1727079;82;21019;-62
2021/11/07 01:49:23;;;;;;;12.05;7.22;;;;;;;3.54;75.94;100295.70;1736495;81;20095;-63
2021/11/07 01:51:28;;;;;;;14.30;7.75;;;;;;;3.51;76.08;100299.62;1714766;82;21106;-63
2021/11/07 01:54:05;;;;;;;10.85;7.15;;;;;;;3.48;76.04;100291.46;1739029;82;21027;-63
2021/11/07 01:56:23;;;;;;;12.90;7.25;;;;;;;3.39;76.25;100300.81;1729468;82;21051;-63
2021/11/07 01:58:49;;;;;;;12.15;7.15;;;;;;;3.35;76.39;100296.89;1723667;82;21070;-63
2021/11/07 02:01:23;;;;;;;13.05;7.35;;;;;;;3.37;76.35;100293.45;1726815;82;21126;-63
2021/11/07 02:03:50;;;;;;;10.53;7.42;;;;;;;3.35;76.27;100295.55;1700812;82;20944;-63
2021/11/07 02:06:16;;;;;;;12.13;7.08;;;;;;;3.27;76.49;100288.20;1721755;82;21051;-63
2021/11/07 02:08:42;;;;;;;11.43;6.95;;;;;;;3.22;76.60;100283.48;1734159;82;20984;-63
2021/11/07 02:11:09;;;;;;;13.72;7.25;;;;;;;3.21;76.60;100281.82;1736064;82;21111;-63
2021/11/07 02:13:36;;;;;;;10.98;7.05;;;;;;;3.21;76.57;100284.51;1737059;82;21000;-63
2021/11/07 02:16:04;;;;;;;13.53;7.90;;;;;;;3.16;76.73;100279.44;1738139;82;21046;-63
2021/11/07 02:18:30;;;;;;;12.28;7.20;;;;;;;3.08;77.05;100275.64;1733060;82;21020;-62
2021/11/07 02:20:56;;;;;;;12.65;7.70;;;;;;;3.07;77.20;100281.54;1715683;82;21103;-63
2021/11/07 02:23:24;;;;;;;10.13;6.95;;;;;;;3.11;77.18;100275.22;1724330;82;21051;-63
2021/11/07 02:25:53;;;;;;;11.53;7.12;;;;;;;3.09;77.12;100275.93;1722710;82;21030;-63
2021/11/07 02:28:39;;;;;;;12.35;7.85;;;;;;;3.04;77.23;100283.31;1725605;82;20976;-63
2021/11/07 02:31:07;;;;;;;10.93;7.25;;;;;;;3.03;77.31;100273.58;1715351;82;21036;-63
2021/11/07 02:33:34;;;;;;;12.40;7.70;;;;;;;3.04;77.30;100275.75;1731337;82;21012;-63
2021/11/07 02:36:10;;;;;;;11.48;7.15;;;;;;;3.01;77.33;100284.53;1727534;82;21549;-62
2021/11/07 02:38:37;;;;;;;11.20;7.37;;;;;;;2.98;77.45;100278.75;1738161;82;21003;-63
2021/11/07 02:41:04;;;;;;;;;;;;;;;2.95;77.52;100278.66;1740954;82;21103;-63
2021/11/07 02:43:30;;;;;;;11.48;7.10;;;;;;;2.96;77.45;100281.66;1714222;82;20134;-63
2021/11/07 02:45:56;;;;;;;10.82;7.37;;;;;;;2.93;77.48;100283.94;1727333;82;21031;-63
2021/11/07 02:49:29;;;;;;;12.88;7.78;;;;;;;2.90;77.61;100283.02;1815831;79;22559;-63
2021/11/07 02:51:57;;;;;;;13.88;8.50;;;;;;;2.81;77.79;100285.59;1786506;79;21007;-64
2021/11/07 02:54:23;;;;;;;11.30;7.28;;;;;;;2.82;77.87;100284.57;1785253;80;21585;-63
2021/11/07 02:56:51;;;;;;;10.65;7.53;;;;;;;2.81;77.82;100285.08;1762715;80;21025;-63
2021/11/07 02:59:20;;;;;;;12.33;7.90;;;;;;;2.78;77.92;100277.95;1747478;81;21502;-64
2021/11/07 03:01:47;;;;;;;14.40;8.50;;;;;;;2.72;78.11;100280.97;1730397;81;21094;-63
2021/11/07 03:04:13;;;;;;;;;;;;;;;2.72;78.19;100280.14;1732118;83;21090;-64
2021/11/07 03:06:40;;;;;;;12.15;7.65;;;;;;;2.73;78.15;100279.11;1749338;81;20106;-63
2021/11/07 03:09:07;;;;;;;11.38;7.87;;;;;;;2.69;78.22;100280.55;1772479;80;21074;-63
2021/11/07 03:11:40;;;;;;;13.53;8.08;;;;;;;2.64;78.38;100276.30;1753893;80;21014;-63
2021/11/07 03:14:06;;;;;;;12.65;7.97;;;;;;;2.61;78.48;100273.52;1765195;80;21062;-64
2021/11/07 03:16:32;;;;;;;10.80;7.40;;;;;;;2.63;78.45;100273.30;1761297;81;21549;-63
2021/11/07 03:18:59;;;;;;;12.18;8.43;;;;;;;2.64;78.34;100272.27;1757543;80;21042;-64
2021/11/07 03:21:25;;;;;;;11.95;8.03;;;;;;;2.63;78.41;100271.95;1684006;84;21119;-64
2021/11/07 03:23:52;;;;;;;12.47;8.05;;;;;;;2.58;78.55;100274.45;1716972;83;21055;-64
2021/11/07 03:26:23;;;;;;;13.40;7.97;;;;;;;2.57;78.69;100270.10;1744685;82;21020;-63
2021/11/07 03:28:56;;;;;;;11.55;7.85;;;;;;;2.60;78.74;100271.86;1714594;82;21097;-63
2021/11/07 03:31:35;;;;;;;14.73;8.15;;;;;;;2.64;78.76;100274.95;1699238;84;21566;-63
2021/11/07 03:33:54;;;;;;;12.00;8.13;;;;;;;2.63;78.72;100278.67;1716820;82;21529;-63
2021/11/07 03:36:20;;;;;;;13.30;8.83;;;;;;;2.58;78.87;100271.25;1710257;84;21090;-63
2021/11/07 03:38:49;;;;;;;16.10;8.98;;;;;;;2.60;78.89;100264.31;1712438;84;21101;-63
2021/11/07 03:41:16;;;;;;;12.35;8.43;;;;;;;2.62;78.78;100267.63;1710534;84;21106;-63
2021/11/07 03:43:43;;;;;;;13.15;8.43;;;;;;;2.65;78.76;100264.02;1717966;82;21101;-63
2021/11/07 03:46:09;;;;;;;;;;;;;;;2.66;78.77;100266.19;1713611;82;21069;-63
2021/11/07 03:48:35;;;;;;;13.58;8.73;;;;;;;2.63;78.92;100261.20;1725018;82;20111;-63
2021/11/07 03:51:04;;;;;;;12.70;7.78;;;;;;;2.59;79.18;100261.33;1714239;83;21085;-63
2021/11/07 03:53:30;;;;;;;13.58;9.00;;;;;;;2.66;79.15;100261.61;1756159;81;21030;-63
2021/11/07 03:55:56;;;;;;;13.90;8.93;;;;;;;2.75;79.11;100258.20;1759580;80;21080;-63
2021/11/07 03:58:22;;;;;;;12.70;8.80;;;;;;;2.82;79.04;100253.65;1753888;82;21046;-64
2021/11/07 04:00:49;;;;;;;13.60;8.60;;;;;;;2.87;79.07;100252.52;1751662;82;21087;-64
2021/11/07 04:03:15;;;;;;;14.80;9.70;;;;;;;2.87;79.13;100251.97;1755735;82;21082;-63
2021/11/07 04:05:42;;;;;;;14.63;8.85;;;;;;;2.92;79.05;100253.53;1756934;80;21104;-63
2021/11/07 04:08:09;;;;;;;14.38;9.00;;;;;;;2.98;78.83;100251.85;1758286;80;21552;-63
2021/11/07 04:10:36;;;;;;;12.63;8.98;;;;;;;3.01;78.56;100251.45;1755711;82;21560;-63
2021/11/07 04:13:05;;;;;;;13.93;8.33;;;;;;;3.00;78.33;100249.28;1735170;82;21546;-63
2021/11/07 04:15:32;;;;;;;15.10;8.68;;;;;;;2.95;78.30;100249.07;1783472;80;20989;-63
2021/11/07 04:17:59;;;;;;;12.95;9.08;;;;;;;2.89;78.22;100247.74;1728013;82;21058;-63
2021/11/07 04:20:25;;;;;;;11.65;8.75;;;;;;;2.85;78.05;100251.37;1687244;83;20968;-63
2021/11/07 04:22:51;;;;;;;14.75;9.50;;;;;;;2.84;77.83;100247.02;1688409;85;21064;-63
2021/11/07 04:25:18;;;;;;;13.72;8.80;;;;;;;2.84;77.69;100240.81;1688328;85;21048;-64
2021/11/07 04:27:44;;;;;;;13.15;9.20;;;;;;;2.77;77.61;100231.41;1699425;83;21076;-63
2021/11/07 04:30:10;;;;;;;14.45;9.53;;;;;;;2.67;77.73;100238.25;1703201;83;21082;-64
2021/11/07 04:32:37;;;;;;;15.00;10.08;;;;;;;2.59;77.86;100235.25;1639631;84;21618;-63
2021/11/07 04:35:05;;;;;;;13.98;9.85;;;;;;;2.56;77.88;100229.47;1722616;83;21668;-64
2021/11/07 04:37:33;;;;;;;15.48;9.65;;;;;;;2.57;77.76;100237.84;1702780;82;21569;-64
2021/11/07 04:39:59;;;;;;;13.55;8.80;;;;;;;2.56;77.67;100239.70;1712258;83;20999;-64
2021/11/07 04:42:25;;;;;;;14.63;8.75;;;;;;;2.52;77.69;100245.19;1697223;84;21075;-63
2021/11/07 04:44:52;;;;;;;15.53;9.88;;;;;;;2.46;77.79;100252.73;1710083;83;21050;-64
2021/11/07 04:47:18;;;;;;;;;;;;;;;2.40;77.97;100250.37;1701964;84;21071;-63
2021/11/07 04:49:45;;;;;;;15.30;10.10;;;;;;;2.38;78.01;100249.73;1711757;83;20116;-63
2021/11/07 04:52:11;;;;;;;13.13;8.58;;;;;;;2.36;78.08;100257.19;1728492;83;21133;-63
2021/11/07 04:54:38;;;;;;;13.58;9.28;;;;;;;2.33;78.26;100251.40;1717108;83;21909;-63
2021/11/07 04:57:05;;;;;;;14.70;10.18;;;;;;;2.26;78.54;100248.71;1738421;81;21098;-63
2021/11/07 04:59:31;;;;;;;14.85;9.45;;;;;;;2.25;78.74;100260.99;1761306;81;20991;-63
2021/11/07 05:01:57;;;;;;;17.23;9.68;;;;;;;2.28;78.76;100257.89;1744738;82;21569;-63
2021/11/07 05:04:24;;;;;;;15.70;10.53;;;;;;;2.32;78.80;100256.45;1747150;82;21058;-64
2021/11/07 05:06:51;;;;;;;16.73;10.30;;;;;;;2.30;78.92;100257.98;1747757;82;21047;-63
2021/11/07 05:09:19;;;;;;;15.50;10.43;;;;;;;2.31;79.22;100263.68;1748013;81;21062;-63
2021/11/07 05:11:45;;;;;;;16.32;9.83;;;;;;;2.37;79.25;100268.22;1747726;82;21054;-63
2021/11/07 05:14:12;;;;;;;13.30;9.43;;;;;;;2.42;79.21;100267.61;1721073;82;21086;-63
2021/11/07 05:16:39;;;;;;;14.65;9.30;;;;;;;2.40;79.19;100265.15;1743826;81;21095;-63
2021/11/07 05:19:06;;;;;;;17.90;10.18;;;;;;;2.37;79.38;100261.50;1747978;81;21047;-64
2021/11/07 05:21:32;;;;;;;17.45;10.20;;;;;;;2.38;79.38;100263.68;1736933;82;21346;-63
2021/11/07 05:23:58;;;;;;;14.70;10.03;;;;;;;2.43;79.24;100267.42;1734311;82;21047;-63
2021/11/07 05:26:25;;;;;;;15.72;10.48;;;;;;;2.46;79.14;100272.38;1747180;82;21022;-63
2021/11/07 05:28:51;;;;;;;15.88;10.38;;;;;;;2.45;79.10;100268.54;1740248;81;21109;-63
2021/11/07 05:31:18;;;;;;;14.78;9.90;;;;;;;2.42;79.31;100264.92;1732290;81;21082;-63
2021/11/07 05:33:44;;;;;;;15.60;10.28;;;;;;;2.44;79.31;100264.22;1732533;82;21023;-63
2021/11/07 05:36:12;;;;;;;16.55;10.40;;;;;;;2.47;79.24;100261.95;1766817;79;21057;-63
2021/11/07 05:38:38;;;;;;;15.40;9.90;;;;;;;2.46;79.19;100254.91;1723925;81;21327;-63
2021/11/07 05:41:05;;;;;;;13.13;10.08;;;;;;;2.45;79.27;100249.73;1738383;81;21075;-63
2021/11/07 05:43:31;;;;;;;15.08;10.75;;;;;;;2.40;79.39;100249.03;1734926;81;21003;-63
2021/11/07 05:45:58;;;;;;;16.42;10.43;;;;;;;2.43;79.40;100252.64;1733076;82;21070;-63
2021/11/07 05:48:24;;;;;;;16.73;11.03;;;;;;;2.48;79.25;100250.66;1742208;81;21054;-63
2021/11/07 05:50:50;;;;;;;14.10;9.80;;;;;;;2.50;79.14;100250.78;1749466;82;21071;-63
2021/11/07 05:53:17;;;;;;;17.55;10.85;;;;;;;2.50;79.16;100259.36;1764000;80;21156;-64
2021/11/07 05:55:43;;;;;;;15.18;9.88;;;;;;;2.49;79.26;100269.27;1722779;80;21075;-63
2021/11/07 05:58:09;;;;;;;16.05;10.65;;;;;;;2.54;79.23;100259.26;1766183;80;21006;-63
2021/11/07 06:00:36;;;;;;;15.10;10.58;;;;;;;2.61;79.04;100257.39;1742788;80;21058;-63
2021/11/07 06:03:06;;;;;;;16.67;11.40;;;;;;;2.67;78.91;100259.24;1784263;80;21002;-63
2021/11/07 06:05:31;;;;;;;15.40;11.12;;;;;;;2.72;78.84;100265.34;1767282;80;20955;-63
2021/11/07 06:07:58;;;;;;;14.53;10.10;;;;;;;2.76;78.80;100253.98;1743460;82;21042;-63
2021/11/07 06:10:24;;;;;;;14.80;10.15;;;;;;;2.87;78.61;100253.86;1752468;80;21082;-63
2021/11/07 06:12:52;;;;;;;15.70;10.72;;;;;;;3.01;78.35;100250.11;1755495;82;21042;-64
2021/11/07 06:15:20;;;;;;;15.50;10.18;;;;;;;3.18;78.08;100255.86;1753150;80;21050;-63
2021/11/07 06:17:46;;;;;;;15.78;10.00;;;;;;;3.36;77.81;100248.77;1759522;80;21074;-64
2021/11/07 06:20:14;;;;;;;14.58;10.18;;;;;;;3.46;77.53;100246.45;1744503;80;21076;-63
2021/11/07 06:22:41;;;;;;;16.65;10.25;;;;;;;3.62;77.21;100250.50;1724127;83;21063;-63
2021/11/07 06:25:07;;;;;;;;;;;;;;;3.83;76.83;100265.00;1730198;82;21055;-63
2021/11/07 06:27:35;;;;;;;13.65;10.20;;;;;;;4.00;76.35;100269.39;1762882;80;20115;-64
2021/11/07 06:30:05;;;;;;;14.58;10.72;;;;;;;4.05;76.38;100275.45;1744220;80;21027;-63
2021/11/07 06:32:32;;;;;;;14.50;10.50;;;;;;;4.19;75.91;100279.20;1747660;80;21046;-64
2021/11/07 06:34:58;;;;;;;14.60;10.15;;;;;;;4.36;75.44;100275.45;1786305;80;21089;-64
2021/11/07 06:37:25;;;;;;;14.53;9.40;;;;;;;4.55;75.07;100272.31;1786448;80;21085;-64
2021/11/07 06:39:51;;;;;;;13.20;10.03;;;;;;;4.67;74.65;100262.47;1783747;80;21077;-64
2021/11/07 06:42:17;;;;;;;16.20;11.57;;;;;;;4.76;74.31;100253.87;1787144;80;21019;-64
2021/11/07 06:44:44;;;;;;;15.10;11.30;;;;;;;4.92;74.12;100243.05;1784456;80;21098;-64
2021/11/07 06:47:12;;;;;;;12.68;9.93;;;;;;;5.19;73.60;100247.11;1770327;79;21010;-64
2021/11/07 06:49:39;;;;;;;12.70;9.78;;;;;;;5.35;72.84;100241.66;1743700;81;21055;-64
2021/11/07 06:52:05;;;;;;;12.55;9.90;;;;;;;5.46;72.43;100240.35;1768145;80;21015;-64
2021/11/07 06:54:32;;;;;;;12.55;9.78;;;;;;;5.58;71.96;100234.19;1752955;82;21092;-64
2021/11/07 06:56:58;;;;;;;15.13;10.13;;;;;;;5.71;71.52;100239.42;1781716;80;21035;-64
2021/11/07 06:59:25;;;;;;;14.25;10.08;;;;;;;5.92;71.09;100233.02;1784634;80;21066;-64
2021/11/07 07:01:52;;;;;;;12.00;9.88;;;;;;;6.10;70.64;100219.98;1784327;80;21059;-64
2021/11/07 07:04:18;;;;;;;12.10;9.05;;;;;;;6.26;70.15;100217.16;1784772;80;21031;-64
2021/11/07 07:06:45;;;;;;;12.03;8.75;;;;;;;6.47;70.12;100213.90;1784473;80;21114;-65
2021/11/07 07:09:14;;;;;;;16.57;11.28;;;;;;;6.77;70.00;100215.12;1761078;80;21090;-64
2021/11/07 07:11:45;;;;;;;14.40;11.22;;;;;;;7.07;68.88;100217.20;1735332;82;21072;-64
2021/11/07 07:14:24;;;;;;;16.87;11.20;;;;;;;7.33;68.40;100215.86;1743626;82;21043;-64
2021/11/07 07:17:15;;;;;;;13.85;10.35;;;;;;;7.55;67.77;100210.59;1752473;80;21174;-64
2021/11/07 07:19:57;;;;;;;11.50;9.40;;;;;;;7.80;67.14;100211.92;1746756;82;21031;-64
2021/11/07 07:30:26;;;;;;;11.75;9.20;;;;;;;8.15;64.40;100196.05;1753277;82;21557;-66
2021/11/07 07:32:56;;;;;;;11.93;9.63;;;;;;;8.23;63.44;100196.45;1748700;82;21491;-66
2021/11/07 07:35:22;;;;;;;13.22;9.48;;;;;;;8.20;63.38;100194.75;1742020;82;21062;-66
2021/11/07 07:37:45;;;;;;;12.58;9.45;;;;;;;8.27;63.53;100192.18;1745946;80;21031;-66
2021/11/07 07:40:12;;;;;;;12.15;9.28;;;;;;;8.32;63.03;100174.67;1756510;80;21102;-66
2021/11/07 07:42:38;;;;;;;11.90;9.50;;;;;;;8.34;62.87;100178.48;1753351;81;21094;-66
2021/11/07 07:45:07;;;;;;;13.22;9.70;;;;;;;8.36;63.00;100181.23;1746329;80;21033;-66
2021/11/07 07:47:33;;;;;;;12.28;9.63;;;;;;;8.49;62.87;100178.73;1735753;82;21106;-66
2021/11/07 07:50:01;;;;;;;14.50;10.75;;;;;;;8.63;62.58;100181.92;1759494;80;21046;-66
2021/11/07 07:52:28;;;;;;;;;;;;;;;8.67;62.07;100182.55;1754470;80;21019;-65
2021/11/07 07:54:56;;;;;;;12.80;9.15;;;;;;;8.89;62.20;100181.25;1754898;80;20113;-66
2021/11/07 07:57:23;;;;;;;14.43;10.35;;;;;;;9.21;62.34;100176.77;1751642;81;21078;-64
2021/11/07 07:59:49;;;;;;;;;;;;;;;9.67;61.91;100177.34;1750983;82;21003;-65
2021/11/07 08:02:16;;;;;;;9.83;8.13;;;;;;;10.03;60.69;100167.62;1773344;81;20404;-66
2021/11/07 08:04:42;;;;;;;13.45;9.00;;;;;;;10.14;60.33;100172.95;1776136;81;21526;-66
2021/11/07 08:07:08;;;;;;;12.40;9.20;;;;;;;10.37;59.16;100179.42;1744186;82;21485;-65
2021/11/07 08:09:35;;;;;;;14.23;10.08;;;;;;;10.37;58.57;100176.70;1778088;80;21608;-64
2021/11/07 08:12:01;;;;;;;15.05;9.10;;;;;;;10.36;58.58;100182.39;1786915;80;21523;-64
2021/11/07 08:14:28;;;;;;;14.35;10.05;;;;;;;10.49;59.35;100170.52;1783402;80;21010;-65
2021/11/07 08:16:56;;;;;;;14.03;9.53;;;;;;;10.78;58.82;100174.27;1726006;82;21019;-65
2021/11/07 08:19:22;;;;;;;12.95;9.75;;;;;;;10.89;57.63;100171.35;1739164;82;21044;-65
2021/11/07 08:21:48;;;;;;;17.37;13.90;;;;;;;10.83;56.77;100160.69;1755058;80;21002;-65
2021/11/07 08:24:15;;;;;;;15.68;12.50;;;;;;;10.64;56.34;100162.19;1765741;80;21073;-67
2021/11/07 08:26:43;;;;;;;21.15;14.03;;;;;;;10.54;57.08;100157.50;1744515;81;21118;-65
2021/11/07 08:29:12;;;;;;;18.00;13.43;;;;;;;10.59;57.11;100156.19;1755715;82;21557;-66
2021/11/07 08:31:39;;;;;;;16.93;13.03;;;;;;;10.74;57.22;100151.36;1755930;82;21122;-69
2021/11/07 08:34:06;;;;;;;13.62;10.15;;;;;;;10.91;57.43;100149.31;1780643;80;21014;-67
2021/11/07 08:36:54;;;;;;;14.25;10.30;;;;;;;10.97;57.00;100144.16;1786813;80;21565;-67
2021/11/07 08:39:27;;;;;;;19.80;15.83;;;;;;;10.99;56.81;100137.89;1785492;80;21031;-67
2021/11/07 08:42:05;;;;;;;15.53;12.63;;;;;;;11.05;56.76;100136.86;1776632;80;21000;-65
2021/11/07 09:01:30;;;;;;;9.78;7.42;;;;;;;11.35;56.29;100109.72;1762614;80;21056;-66
2021/11/07 09:03:54;;;;;;;15.18;10.95;;;;;;;11.41;55.87;100109.17;1736619;81;20994;-66
2021/11/07 09:08:49;;;;;;;13.15;8.98;;;;;;;11.40;55.84;100089.30;1761130;81;21845;-67
2021/11/07 09:11:18;;;;;;;13.53;9.20;;;;;;;11.45;55.88;100097.47;1753029;80;21054;-65
2021/11/07 09:13:45;;;;;;;10.95;8.43;;;;;;;11.49;56.17;100100.48;1684894;83;21076;-66
2021/11/07 09:16:14;;;;;;;11.50;8.40;;;;;;;11.58;55.87;100100.25;1695947;84;21015;-65
2021/11/07 09:18:42;;;;;;;14.73;10.68;;;;;;;11.67;55.83;100095.89;1719786;83;21053;-65
2021/11/07 09:21:17;;;;;;;15.60;11.40;;;;;;;11.79;55.42;100075.22;1681749;83;21474;-64
2021/11/07 09:23:52;;;;;;;15.93;12.00;;;;;;;11.94;55.45;100085.58;1670668;86;21549;-64
2021/11/07 09:26:28;;;;;;;14.83;10.05;;;;;;;12.13;54.90;100082.31;1675762;84;21078;-65
2021/11/07 09:28:59;;;;;;;13.05;9.65;;;;;;;12.19;54.29;100080.67;1690430;83;21012;-67
2021/11/07 09:31:40;;;;;;;16.48;10.90;;;;;;;12.19;53.93;100062.92;1697380;84;21110;-67
2021/11/07 09:36:36;;;;;;;15.70;10.60;;;;;;;12.01;53.90;100059.38;1720979;83;21094;-65
2021/11/07 09:41:49;;;;;;;13.32;9.53;;;;;;;11.80;54.43;100042.74;1684466;83;21107;-66
2021/11/07 09:44:13;;;;;;;15.65;9.93;;;;;;;11.73;54.57;100035.38;1695036;84;21526;-67
2021/11/07 09:46:48;;;;;;;14.83;10.60;;;;;;;11.79;54.83;100025.58;1701026;83;21134;-66
2021/11/07 09:49:24;;;;;;;14.85;11.20;;;;;;;11.95;54.57;100015.47;1696758;84;21017;-65
2021/11/07 09:52:00;;;;;;;13.83;9.98;;;;;;;12.00;53.84;100008.66;1675594;85;21111;-63
2021/11/07 09:54:27;;;;;;;14.63;10.03;;;;;;;12.04;54.22;100012.48;1674065;85;21055;-68
2021/11/07 09:56:54;;;;;;;15.10;9.78;;;;;;;12.21;53.57;100006.72;1660076;85;21653;-68
2021/11/07 09:59:23;;;;;;;12.23;9.53;;;;;;;12.28;52.77;100000.42;1661970;85;21020;-68
2021/11/07 10:01:57;;;;;;;12.23;8.75;;;;;;;12.34;53.08;100004.22;1685557;84;21020;-67
2021/11/07 10:04:22;;;;;;;12.35;8.93;;;;;;;12.48;52.88;100005.28;1721795;83;20991;-68
2021/11/07 10:06:53;;;;;;;12.55;8.60;;;;;;;12.37;52.05;99998.20;1672165;83;21647;-65
2021/11/07 10:09:34;;;;;;;11.78;9.00;;;;;;;12.28;52.66;100009.98;1670557;83;21066;-66
2021/11/07 10:12:10;;;;;;;12.07;8.53;;;;;;;12.29;52.55;100014.35;1711275;82;21039;-65
2021/11/07 10:14:56;;;;;;;12.40;8.50;;;;;;;12.42;52.44;100006.94;1727988;82;21023;-67
2021/11/07 10:17:43;;;;;;;10.55;8.08;;;;;;;12.61;52.13;100003.86;1720022;83;21074;-67
2021/11/07 10:20:22;;;;;;;11.25;7.87;;;;;;;12.74;51.95;99987.44;1722254;83;21034;-67
2021/11/07 10:22:52;;;;;;;13.45;7.67;;;;;;;12.91;51.32;99980.53;1721972;83;21086;-66
2021/11/07 10:25:27;;;;;;;11.08;7.80;;;;;;;13.08;50.74;99978.78;1669807;83;21027;-66
2021/11/07 10:27:52;;;;;;;11.40;7.35;;;;;;;13.18;49.79;99973.28;1668548;83;21058;-66
2021/11/07 10:30:24;;;;;;;11.97;7.95;;;;;;;13.15;49.15;99972.48;1691743;83;20999;-66
2021/11/07 10:32:58;;;;;;;10.43;7.87;;;;;;;13.00;49.33;99981.31;1682812;83;21038;-65
2021/11/07 10:52:22;;;;;;;8.55;6.37;;;;;;;13.11;48.85;99942.72;1745807;81;21113;-65
2021/11/07 10:54:49;;;;;;;9.00;6.37;;;;;;;13.17;48.51;99935.31;1678826;84;21039;-64
2021/11/07 10:57:23;;;;;;;8.50;6.20;;;;;;;13.27;48.48;99925.13;1668649;84;21566;-65
2021/11/07 11:00:34;;;;;;;8.43;5.90;;;;;;;13.37;47.82;99930.52;1674756;85;20995;-65
2021/11/07 11:03:07;;;;;;;7.58;5.80;;;;;;;13.55;48.07;99936.39;1674690;85;21039;-65
2021/11/07 11:05:42;;;;;;;8.13;6.15;;;;;;;13.69;47.29;99944.20;1671761;83;21630;-66
2021/11/07 11:08:18;;;;;;;7.95;6.15;;;;;;;13.80;46.62;99930.70;1647035;85;21063;-66
2021/11/07 11:10:58;;;;;;;10.28;6.53;;;;;;;13.65;46.69;99934.93;1647922;86;21055;-66
2021/11/07 11:13:39;;;;;;;7.47;6.10;;;;;;;13.25;46.83;99937.45;1641323;86;21032;-66
2021/11/07 11:16:32;;;;;;;9.03;6.50;;;;;;;12.81;47.75;99951.08;1642251;86;21636;-66
2021/11/07 11:30:16;;;;;;;11.33;7.58;;;;;;;11.46;51.85;99893.30;1608266;89;21046;-66
2021/11/07 11:32:43;;;;;;;9.65;6.47;;;;;;;11.33;52.06;99902.04;1589228;89;21083;-65
2021/11/07 11:35:14;;;;;;;7.17;5.70;;;;;;;11.21;52.43;99898.75;1591111;89;21102;-65
2021/11/07 11:37:43;;;;;;;7.72;6.15;;;;;;;11.10;52.93;99882.13;1611194;87;21082;-65
2021/11/07 11:40:19;;;;;;;9.05;6.58;;;;;;;11.08;53.24;99888.94;1617641;87;21124;-66
2021/11/07 11:42:59;;;;;;;11.30;6.90;;;;;;;11.05;53.26;99877.23;1600124;87;21085;-66
2021/11/07 11:45:28;;;;;;;10.15;6.35;;;;;;;10.99;53.28;99872.30;1617286;87;21097;-64
2021/11/07 11:51:29;;;;;;;7.75;6.00;;;;;;;10.90;53.63;99878.84;1581889;87;21062;-64
2021/11/07 11:57:43;;;;;;;8.83;5.95;;;;;;;10.81;53.97;99861.92;1617572;87;21090;-64
2021/11/07 12:05:39;;;;;;;9.98;6.12;;;;;;;10.73;54.65;99855.13;1603831;88;21074;-65
2021/11/07 12:08:21;;;;;;;14.63;10.78;;;;;;;10.70;54.66;99850.77;1608174;88;21064;-65
2021/11/07 12:11:02;;;;;;;19.87;16.70;;;;;;;10.65;54.88;99846.13;1559141;90;21131;-65
2021/11/07 12:13:44;;;;;;;62.33;42.93;;;;;;;10.60;55.05;99844.73;1566793;90;21451;-65
2021/11/07 12:16:23;;;;;;;76.37;52.10;;;;;;;10.56;55.19;99834.11;1617432;87;21091;-65
2021/11/07 12:19:04;;;;;;;58.23;39.25;;;;;;;10.54;55.33;99829.49;1614363;87;21007;-65
2021/11/07 12:22:00;;;;;;;23.70;18.70;;;;;;;10.52;55.60;99831.68;1614778;87;21037;-64
2021/11/07 12:24:50;;;;;;;39.83;28.17;;;;;;;10.51;55.74;99826.49;1586970;90;21525;-64
2021/11/07 12:27:34;;;;;;;26.48;18.73;;;;;;;10.47;56.16;99818.87;1605810;88;21410;-64
2021/11/07 12:30:14;;;;;;;19.35;13.35;;;;;;;10.44;56.04;99815.87;1609563;89;21570;-64
2021/11/07 12:32:46;;;;;;;11.70;8.60;;;;;;;10.39;56.14;99818.03;1609514;87;21628;-64
2021/11/07 12:35:32;;;;;;;15.43;11.12;;;;;;;10.34;56.26;99826.73;1611372;87;21352;-64
2021/11/07 12:41:10;;;;;;;13.35;8.20;;;;;;;10.17;56.69;99821.48;1583931;90;21606;-65
2021/11/07 12:43:43;;;;;;;11.78;8.13;;;;;;;10.09;56.74;99813.02;1590309;88;21098;-65
2021/11/07 12:46:41;;;;;;;10.40;7.83;;;;;;;10.03;57.09;99815.41;1613033;87;21103;-65
2021/11/07 12:49:24;;;;;;;12.93;7.90;;;;;;;10.02;57.11;99812.44;1602687;88;21026;-65
2021/11/07 12:52:08;;;;;;;10.65;8.15;;;;;;;10.00;57.04;99812.69;1613480;87;21164;-66
2021/11/07 12:54:37;;;;;;;10.05;7.42;;;;;;;9.95;57.19;99802.60;1612377;88;21030;-65
2021/11/07 12:57:09;;;;;;;11.05;7.53;;;;;;;9.91;57.20;99795.27;1612366;87;21759;-65
2021/11/07 13:00:06;;;;;;;10.28;7.20;;;;;;;9.87;57.35;99788.72;1599375;89;21506;-65
2021/11/07 13:02:31;;;;;;;9.15;6.92;;;;;;;9.83;57.43;99791.69;1624060;86;21764;-65
2021/11/07 13:05:22;;;;;;;11.97;7.55;;;;;;;9.78;57.73;99782.14;1647416;86;21078;-66
2021/11/07 13:08:42;;;;;;;10.23;6.53;;;;;;;9.74;57.62;99780.48;1631933;87;21557;-65
2021/11/07 13:10:29;;;;;;;11.65;7.72;;;;;;;9.67;57.85;99779.13;1636970;87;21087;-65
2021/11/07 13:12:59;;;;;;;9.88;6.75;;;;;;;9.63;58.01;99782.09;1671360;86;21086;-65
2021/11/07 13:15:41;;;;;;;10.18;6.70;;;;;;;9.60;58.25;99782.63;1654454;86;21011;-66